»·PEaware :: N1422E KSNA-KVNY

N1422E :: KSNA-KVNY

FLIGHT INFORMATION

Flight Status: Arrived
Operator: Privately registered:
United States
More flights under this callsign
Pilot: Jonathan B. (787)
Aircraft: CESSNA T210 TURBO CENTURION
(T210)
More flights by this aircraft type
Origin: KSNA John Wayne-Orange Co
United States
Destination: KVNY Van Nuys
United States
More flights between these airports :: More routes between these airports
Route: +SLI V23 POPPR SMO125R SMO SMO317R CANOG
File this flight plan on PilotEdge
Remarks: cstp3 tech route
Altitude:
(Current/Filed)
4,000ft
Speed:
(Current/Filed)
160kts
Departed: 08-Feb-20 09:16 AM
Arrived: 08-Feb-20 10:00 AM
Distance/Time
Traveled:
45nm/0:44
Distance/Time
To Go:
Arrived

Flight Plot

Page will automatically refresh every two minutes.


Map Options




Map Legend


Flown Route
Filed Route
Departure Airport
Arrival Airport
Navaid (VOR, NDB)
Fix

Horizontal Profiles

Position Reports

Time Latitude Longitude Heading Altitude Ground
Speed
08-Feb-20 09:01 33.676026 -117.871114 40 60ft 0kts
08-Feb-20 09:02 33.676026 -117.871114 40 60ft 0kts
08-Feb-20 09:03 33.676026 -117.871114 40 60ft 0kts
08-Feb-20 09:04 33.676026 -117.871114 40 60ft 0kts
08-Feb-20 09:05 33.676026 -117.871114 40 60ft 0kts
08-Feb-20 09:06 33.676026 -117.871114 40 60ft 0kts
08-Feb-20 09:08 33.676026 -117.871114 40 60ft 0kts
08-Feb-20 09:09 33.676026 -117.871114 40 60ft 0kts
08-Feb-20 09:10 33.676026 -117.871114 40 60ft 0kts
08-Feb-20 09:11 33.676026 -117.871114 40 60ft 0kts
08-Feb-20 09:12 33.675925 -117.870239 48 60ft 3kts
08-Feb-20 09:13 33.678410 -117.868608 33 60ft 12kts
08-Feb-20 09:14 33.680789 -117.867326 28 60ft 9kts
08-Feb-20 09:15 33.681258 -117.866547 107 60ft 0kts
08-Feb-20 09:16 33.676888 -117.868059 206 154ft 80kts
08-Feb-20 09:17 33.657522 -117.887197 224 1493ft 97kts
08-Feb-20 09:18 33.635333 -117.917729 232 2004ft 143kts
08-Feb-20 09:19 33.607558 -117.955368 232 2131ft 149kts
08-Feb-20 09:20 33.580027 -117.991561 226 3001ft 153kts
08-Feb-20 09:21 33.551102 -118.028481 223 3858ft 151kts
08-Feb-20 09:22 33.519431 -118.063154 226 3979ft 158kts
08-Feb-20 09:23 33.502939 -118.106373 313 3817ft 159kts
08-Feb-20 09:24 33.539190 -118.133958 331 3881ft 153kts
08-Feb-20 09:25 33.577414 -118.154598 346 3982ft 151kts
08-Feb-20 09:26 33.617640 -118.170113 341 4011ft 153kts
08-Feb-20 09:26 33.650186 -118.186836 334 4024ft 154kts
08-Feb-20 09:28 33.696203 -118.210323 334 4021ft 154kts
08-Feb-20 09:29 33.734817 -118.233492 339 3969ft 155kts
08-Feb-20 09:29 33.767717 -118.250229 336 3959ft 154kts
08-Feb-20 09:30 33.808631 -118.266203 344 3945ft 154kts
08-Feb-20 09:32 33.852559 -118.293686 324 3907ft 155kts
08-Feb-20 09:32 33.881474 -118.319459 317 3882ft 156kts
08-Feb-20 09:33 33.911112 -118.357429 317 3875ft 157kts
08-Feb-20 09:35 33.948739 -118.396939 328 3937ft 152kts
08-Feb-20 09:35 33.976829 -118.422677 318 4007ft 151kts
08-Feb-20 09:36 34.011752 -118.452918 333 3861ft 158kts
08-Feb-20 09:37 34.045635 -118.482332 313 4046ft 151kts
08-Feb-20 09:38 34.077516 -118.516769 322 4010ft 153kts
08-Feb-20 09:39 34.110341 -118.549555 320 4002ft 155kts
08-Feb-20 09:40 34.142559 -118.583764 315 4009ft 154kts
08-Feb-20 09:41 34.171398 -118.622058 313 4427ft 147kts
08-Feb-20 09:42 34.202638 -118.653841 320 4935ft 151kts
08-Feb-20 09:43 34.233552 -118.687884 322 4949ft 150kts
08-Feb-20 09:44 34.273194 -118.679698 13 5000ft 150kts
08-Feb-20 09:45 34.312911 -118.663090 21 5037ft 149kts
08-Feb-20 09:46 34.351928 -118.645140 10 5027ft 152kts
08-Feb-20 09:47 34.392494 -118.631997 11 5047ft 152kts
08-Feb-20 09:48 34.433828 -118.622301 19 5020ft 154kts
08-Feb-20 09:49 34.459084 -118.580889 54 5017ft 153kts
08-Feb-20 09:50 34.466279 -118.535183 135 4984ft 157kts
08-Feb-20 09:51 34.428433 -118.512887 163 4781ft 150kts
08-Feb-20 09:52 34.393151 -118.508542 171 4358ft 105kts
08-Feb-20 09:53 34.365324 -118.506410 176 4199ft 95kts
08-Feb-20 09:54 34.337878 -118.501836 170 3977ft 101kts
08-Feb-20 09:55 34.308797 -118.500462 173 3515ft 108kts
08-Feb-20 09:56 34.279332 -118.497976 171 2557ft 103kts
08-Feb-20 09:57 34.251569 -118.494898 174 1824ft 98kts
08-Feb-20 09:58 34.226587 -118.491931 176 1205ft 87kts
08-Feb-20 09:59 34.210147 -118.491038 262 806ft 13kts
08-Feb-20 10:00 34.209817 -118.492194 262 806ft 5kts

Navigation Log

Ident Type
Flight plan parsing failed, navigation log unavailable